Time;durP1;ratioP1;P1;durP2;ratioP2;P2;SDS_P1;SDS_P2;PMS_P1;PMS_P2;Temp;Humidity;BMP_temperature;BMP_pressure;BME280_temperature;BME280_humidity;BME280_pressure;Samples;Min_cycle;Max_cycle;Signal;HPM_P1;HPM_P2
2023/09/04 00:00:45;;;;;;;;;;;;;;;;;;5062926;28;19904;-74
2023/09/04 00:03:11;;;;;;;;;;;;;;;;;;5062076;28;19908;-74
2023/09/04 00:05:37;;;;;;;;;;;;;;;;;;5059503;28;19904;-73
2023/09/04 00:08:03;;;;;;;;;;;;;;;;;;5059270;28;19911;-74
2023/09/04 00:10:28;;;;;;;;;;;;;;;;;;5054322;28;19909;-75
2023/09/04 00:12:54;;;;;;;;;;;;;;;;;;5062833;28;19911;-74
2023/09/04 00:15:20;;;;;;;;;;;;;;;;;;5060401;28;19908;-74
2023/09/04 00:17:46;;;;;;;;;;;;;;;;;;5059001;28;19911;-72
2023/09/04 00:20:12;;;;;;;;;;;;;;;;;;5059009;28;20376;-73
2023/09/04 00:22:38;;;;;;;;;;;;;;;;;;5044016;28;19920;-73
2023/09/04 00:25:04;;;;;;;;;;;;;;;;;;5062537;28;20448;-73
2023/09/04 00:27:30;;;;;;;;;;;;;;;;;;5050668;28;20003;-74
2023/09/04 00:29:56;;;;;;;;;;;;;;;;;;5058893;28;20276;-73
2023/09/04 00:32:22;;;;;;;;;;;;;;;;;;5058602;28;19905;-75
2023/09/04 00:34:48;;;;;;;;;;;;;;;;;;5062505;28;19904;-74
2023/09/04 00:37:14;;;;;;;;;;;;;;;;;;5061180;28;20580;-74
2023/09/04 00:39:40;;;;;;;;;;;;;;;;;;5058638;28;20465;-74
2023/09/04 00:42:06;;;;;;;;;;;;;;;;;;5041045;28;19905;-74
2023/09/04 00:44:32;;;;;;;;;;;;;;;;;;5042801;28;19912;-74
2023/09/04 00:46:58;;;;;;;;;;;;;;;;;;5062064;28;19904;-75
2023/09/04 00:49:24;;;;;;;;;;;;;;;;;;5059272;28;19916;-74
2023/09/04 00:51:50;;;;;;;;;;;;;;;;;;5040864;28;19912;-74
2023/09/04 00:54:16;;;;;;;;;;;;;;;;;;5040623;28;20269;-74
2023/09/04 00:56:42;;;;;;;;;;;;;;;;;;5061978;28;19908;-74
2023/09/04 00:59:08;;;;;;;;;;;;;;;;;;5043185;28;19905;-74
2023/09/04 01:01:34;;;;;;;;;;;;;;;;;;5058948;28;19916;-74
2023/09/04 01:04:00;;;;;;;;;;;;;;;;;;5059960;28;20405;-73
2023/09/04 01:06:26;;;;;;;;;;;;;;;;;;5063311;28;19913;-74
2023/09/04 01:08:52;;;;;;;;;;;;;;;;;;5064911;28;19927;-73
2023/09/04 01:11:18;;;;;;;;;;;;;;;;;;5047477;28;19963;-73
2023/09/04 01:13:44;;;;;;;;;;;;;;;;;;5058921;28;20293;-72
2023/09/04 01:16:10;;;;;;;;;;;;;;;;;;5040610;28;19905;-73
2023/09/04 01:18:36;;;;;;;;;;;;;;;;;;5060538;28;19908;-74
2023/09/04 01:21:02;;;;;;;;;;;;;;;;;;5044165;28;20283;-74
2023/09/04 01:23:28;;;;;;;;;;;;;;;;;;5058445;28;19913;-74
2023/09/04 01:25:54;;;;;;;;;;;;;;;;;;5058204;28;20406;-74
2023/09/04 01:28:20;;;;;;;;;;;;;;;;;;5058065;28;19950;-73
2023/09/04 01:30:45;;;;;;;;;;;;;;;;;;5060760;28;19904;-74
2023/09/04 01:33:11;;;;;;;;;;;;;;;;;;5060834;28;19911;-73
2023/09/04 01:35:37;;;;;;;;;;;;;;;;;;5058088;28;19912;-73
2023/09/04 01:38:03;;;;;;;;;;;;;;;;;;5040271;28;19912;-71
2023/09/04 01:40:29;;;;;;;;;;;;;;;;;;5059795;28;19904;-74
2023/09/04 01:42:55;;;;;;;;;;;;;;;;;;5061547;28;19915;-74
2023/09/04 01:45:21;;;;;;;;;;;;;;;;;;5061299;28;19904;-73
2023/09/04 01:47:47;;;;;;;;;;;;;;;;;;5062147;28;19905;-73
2023/09/04 01:50:13;;;;;;;;;;;;;;;;;;5061943;28;19939;-72
2023/09/04 01:52:39;;;;;;;;;;;;;;;;;;5047242;28;19905;-73
2023/09/04 01:55:05;;;;;;;;;;;;;;;;;;5065657;28;19951;-73
2023/09/04 01:57:31;;;;;;;;;;;;;;;;;;5053538;28;20283;-73
2023/09/04 01:59:57;;;;;;;;;;;;;;;;;;5044059;28;19909;-73
2023/09/04 02:02:23;;;;;;;;;;;;;;;;;;5062620;28;20394;-74
2023/09/04 02:04:49;;;;;;;;;;;;;;;;;;5065302;28;19904;-73
2023/09/04 02:07:15;;;;;;;;;;;;;;;;;;5063880;28;20338;-75
2023/09/04 02:09:40;;;;;;;;;;;;;;;;;;5061729;28;19904;-74
2023/09/04 02:12:06;;;;;;;;;;;;;;;;;;5043716;28;19904;-73
2023/09/04 02:14:32;;;;;;;;;;;;;;;;;;5063869;28;20364;-72
2023/09/04 02:16:58;;;;;;;;;;;;;;;;;;5065100;28;19912;-71
2023/09/04 02:19:24;;;;;;;;;;;;;;;;;;5062341;28;19917;-73
2023/09/04 02:21:50;;;;;;;;;;;;;;;;;;5061660;28;19905;-72
2023/09/04 02:24:16;;;;;;;;;;;;;;;;;;5059938;28;20007;-72
2023/09/04 02:26:42;;;;;;;;;;;;;;;;;;5060216;28;20000;-72
2023/09/04 02:29:08;;;;;;;;;;;;;;;;;;5056530;28;20295;-71
2023/09/04 02:31:34;;;;;;;;;;;;;;;;;;5042822;28;19909;-72
2023/09/04 02:33:59;;;;;;;;;;;;;;;;;;5061301;28;19905;-74
2023/09/04 02:36:26;;;;;;;;;;;;;;;;;;5062440;28;20276;-72
2023/09/04 02:38:52;;;;;;;;;;;;;;;;;;5064488;28;19904;-72
2023/09/04 02:41:18;;;;;;;;;;;;;;;;;;5063233;28;20291;-73
2023/09/04 02:43:43;;;;;;;;;;;;;;;;;;5061346;28;19912;-73
2023/09/04 02:46:09;;;;;;;;;;;;;;;;;;5061191;28;19905;-73
2023/09/04 02:48:35;;;;;;;;;;;;;;;;;;5063366;28;19904;-72
2023/09/04 02:51:01;;;;;;;;;;;;;;;;;;5064553;28;19957;-73
2023/09/04 02:53:28;;;;;;;;;;;;;;;;;;5061521;28;19908;-74
2023/09/04 02:55:54;;;;;;;;;;;;;;;;;;5060034;28;19916;-74
2023/09/04 02:58:20;;;;;;;;;;;;;;;;;;5058916;28;20010;-73
2023/09/04 03:00:46;;;;;;;;;;;;;;;;;;5064349;28;19904;-74
2023/09/04 03:03:12;;;;;;;;;;;;;;;;;;5063473;28;20372;-74
2023/09/04 03:05:39;;;;;;;;;;;;;;;;;;5060852;28;19911;-72
2023/09/04 03:08:05;;;;;;;;;;;;;;;;;;5060436;28;19905;-74
2023/09/04 03:10:31;;;;;;;;;;;;;;;;;;5070662;28;19905;-73
2023/09/04 03:12:57;;;;;;;;;;;;;;;;;;5064132;28;19915;-73
2023/09/04 03:15:23;;;;;;;;;;;;;;;;;;5061951;28;19905;-75
2023/09/04 03:17:49;;;;;;;;;;;;;;;;;;5060356;28;19931;-73
2023/09/04 03:20:19;;;;;;;;;;;;;;;;;;5060904;28;19912;-72
2023/09/04 03:22:45;;;;;;;;;;;;;;;;;;5051079;28;19919;-73
2023/09/04 03:25:11;;;;;;;;;;;;;;;;;;5045076;28;19905;-74
2023/09/04 03:27:37;;;;;;;;;;;;;;;;;;5060593;28;19935;-73
2023/09/04 03:30:03;;;;;;;;;;;;;;;;;;5060530;28;19905;-72
2023/09/04 03:32:28;;;;;;;;;;;;;;;;;;5035505;28;19916;-73
2023/09/04 03:34:54;;;;;;;;;;;;;;;;;;5062186;28;19954;-72
2023/09/04 03:37:20;;;;;;;;;;;;;;;;;;5061616;28;19979;-73
2023/09/04 03:39:46;;;;;;;;;;;;;;;;;;5060072;28;19915;-73
2023/09/04 03:42:12;;;;;;;;;;;;;;;;;;5061484;28;19905;-72
2023/09/04 03:44:38;;;;;;;;;;;;;;;;;;5064478;28;19904;-72
2023/09/04 03:47:04;;;;;;;;;;;;;;;;;;5064794;28;20419;-73
2023/09/04 03:49:30;;;;;;;;;;;;;;;;;;5042993;28;19905;-74
2023/09/04 03:51:56;;;;;;;;;;;;;;;;;;5059998;28;19920;-74
2023/09/04 03:54:22;;;;;;;;;;;;;;;;;;5060275;28;19905;-73
2023/09/04 03:56:48;;;;;;;;;;;;;;;;;;5063295;28;19987;-74
2023/09/04 03:59:15;;;;;;;;;;;;;;;;;;5062041;28;20035;-74
2023/09/04 04:01:40;;;;;;;;;;;;;;;;;;5059781;28;19904;-74
2023/09/04 04:04:06;;;;;;;;;;;;;;;;;;5059477;28;19954;-75
2023/09/04 04:06:32;;;;;;;;;;;;;;;;;;5061649;28;19966;-75
2023/09/04 04:08:58;;;;;;;;;;;;;;;;;;5044114;28;19909;-75
2023/09/04 04:11:24;;;;;;;;;;;;;;;;;;5068852;28;19908;-73
2023/09/04 04:13:50;;;;;;;;;;;;;;;;;;5059627;28;20307;-74
2023/09/04 04:16:16;;;;;;;;;;;;;;;;;;5059384;28;19905;-72
2023/09/04 04:18:42;;;;;;;;;;;;;;;;;;5044442;28;19912;-72
2023/09/04 04:21:08;;;;;;;;;;;;;;;;;;5062590;28;20291;-72
2023/09/04 04:23:33;;;;;;;;;;;;;;;;;;5057907;28;19917;-74
2023/09/04 04:25:59;;;;;;;;;;;;;;;;;;5059726;28;19912;-73
2023/09/04 04:28:25;;;;;;;;;;;;;;;;;;5060285;28;20279;-73
2023/09/04 04:30:51;;;;;;;;;;;;;;;;;;5061585;28;20399;-73
2023/09/04 04:33:17;;;;;;;;;;;;;;;;;;5060596;28;19987;-73
2023/09/04 04:35:43;;;;;;;;;;;;;;;;;;5055709;28;20349;-70
2023/09/04 04:38:09;;;;;;;;;;;;;;;;;;5058593;28;20395;-74
2023/09/04 04:40:35;;;;;;;;;;;;;;;;;;5060930;28;19948;-72
2023/09/04 04:43:01;;;;;;;;;;;;;;;;;;5062158;28;19916;-73
2023/09/04 04:45:27;;;;;;;;;;;;;;;;;;5059066;28;19913;-72
2023/09/04 04:47:53;;;;;;;;;;;;;;;;;;5058675;28;19905;-72
2023/09/04 04:50:19;;;;;;;;;;;;;;;;;;5066997;28;19911;-73
2023/09/04 04:52:46;;;;;;;;;;;;;;;;;;5062288;28;19911;-74
2023/09/04 04:55:12;;;;;;;;;;;;;;;;;;5061162;28;20383;-73
2023/09/04 04:57:38;;;;;;;;;;;;;;;;;;5058503;28;19912;-74
2023/09/04 05:00:07;;;;;;;;;;;;;;;;;;5058504;28;19998;-74
2023/09/04 05:02:33;;;;;;;;;;;;;;;;;;5060481;28;19909;-73
2023/09/04 05:04:58;;;;;;;;;;;;;;;;;;5062161;28;19911;-75
2023/09/04 05:07:24;;;;;;;;;;;;;;;;;;5041501;28;19908;-73
2023/09/04 05:09:50;;;;;;;;;;;;;;;;;;5058361;28;19905;-73
2023/09/04 05:12:16;;;;;;;;;;;;;;;;;;5058377;28;19950;-74
2023/09/04 05:14:42;;;;;;;;;;;;;;;;;;5061961;28;19933;-73
2023/09/04 05:17:08;;;;;;;;;;;;;;;;;;5060807;28;19916;-72
2023/09/04 05:19:34;;;;;;;;;;;;;;;;;;5057263;28;19916;-73
2023/09/04 05:22:00;;;;;;;;;;;;;;;;;;5057282;28;19905;-71
2023/09/04 05:24:26;;;;;;;;;;;;;;;;;;5056627;28;19913;-73
2023/09/04 05:26:52;;;;;;;;;;;;;;;;;;5061874;28;20291;-73
2023/09/04 05:29:17;;;;;;;;;;;;;;;;;;5041857;28;19911;-73
2023/09/04 05:31:43;;;;;;;;;;;;;;;;;;5057358;28;19905;-73
2023/09/04 05:34:09;;;;;;;;;;;;;;;;;;5057930;28;20364;-73
2023/09/04 05:36:35;;;;;;;;;;;;;;;;;;5058606;28;19909;-73
2023/09/04 05:39:01;;;;;;;;;;;;;;;;;;5058697;28;19905;-74
2023/09/04 05:41:27;;;;;;;;;;;;;;;;;;5057828;28;19981;-73
2023/09/04 05:43:53;;;;;;;;;;;;;;;;;;5057752;28;19963;-73
2023/09/04 05:46:19;;;;;;;;;;;;;;;;;;5057905;28;19959;-72
2023/09/04 05:48:45;;;;;;;;;;;;;;;;;;5061399;28;19912;-74
2023/09/04 05:51:11;;;;;;;;;;;;;;;;;;5061110;28;19905;-74
2023/09/04 05:53:37;;;;;;;;;;;;;;;;;;5058083;28;19905;-72
2023/09/04 05:56:03;;;;;;;;;;;;;;;;;;5064236;28;19919;-71
2023/09/04 05:58:29;;;;;;;;;;;;;;;;;;5061044;28;20396;-72
2023/09/04 06:00:58;;;;;;;;;;;;;;;;;;5061844;28;19905;-73
2023/09/04 06:03:25;;;;;;;;;;;;;;;;;;5059063;28;20006;-73
2023/09/04 06:05:50;;;;;;;;;;;;;;;;;;5057986;28;19912;-73
2023/09/04 06:08:16;;;;;;;;;;;;;;;;;;5057670;28;19904;-73
2023/09/04 06:10:43;;;;;;;;;;;;;;;;;;5061589;28;19904;-73
2023/09/04 06:13:09;;;;;;;;;;;;;;;;;;5061528;28;20058;-73
2023/09/04 06:15:35;;;;;;;;;;;;;;;;;;5058030;28;20388;-72
2023/09/04 06:18:01;;;;;;;;;;;;;;;;;;5065966;28;19911;-74
2023/09/04 06:20:26;;;;;;;;;;;;;;;;;;5062658;28;19916;-73
2023/09/04 06:22:52;;;;;;;;;;;;;;;;;;5065430;28;19912;-73
2023/09/04 06:25:18;;;;;;;;;;;;;;;;;;5061477;28;19904;-73
2023/09/04 06:27:44;;;;;;;;;;;;;;;;;;5059230;28;20542;-74
2023/09/04 06:30:10;;;;;;;;;;;;;;;;;;5057011;28;19913;-73
2023/09/04 06:32:36;;;;;;;;;;;;;;;;;;5049132;28;19916;-71
2023/09/04 06:35:03;;;;;;;;;;;;;;;;;;5052584;28;19905;-73
2023/09/04 06:37:29;;;;;;;;;;;;;;;;;;5044776;28;19909;-73
2023/09/04 06:39:56;;;;;;;;;;;;;;;;;;5034675;28;20455;-73
2023/09/04 06:42:21;;;;;;;;;;;;;;;;;;5049021;28;20007;-73
2023/09/04 06:44:47;;;;;;;;;;;;;;;;;;5054064;28;19991;-73
2023/09/04 06:47:14;;;;;;;;;;;;;;;;;;5050898;28;20326;-73
2023/09/04 06:49:40;;;;;;;;;;;;;;;;;;5051193;28;19905;-73
2023/09/04 06:52:05;;;;;;;;;;;;;;;;;;5043933;28;20292;-73
2023/09/04 06:54:31;;;;;;;;;;;;;;;;;;5033390;28;19912;-73
2023/09/04 06:56:58;;;;;;;;;;;;;;;;;;5030530;28;19904;-74
2023/09/04 06:59:24;;;;;;;;;;;;;;;;;;5044556;28;19909;-73
2023/09/04 07:01:50;;;;;;;;;;;;;;;;;;5050585;28;19917;-73
2023/09/04 07:04:15;;;;;;;;;;;;;;;;;;5047210;28;20394;-73
2023/09/04 07:06:41;;;;;;;;;;;;;;;;;;5050991;28;19930;-73
2023/09/04 07:09:07;;;;;;;;;;;;;;;;;;5073785;28;19905;-70
2023/09/04 07:11:33;;;;;;;;;;;;;;;;;;5055052;28;20261;-74
2023/09/04 07:13:59;;;;;;;;;;;;;;;;;;5062823;28;19987;-73
2023/09/04 07:16:25;;;;;;;;;;;;;;;;;;5063114;28;19909;-73
2023/09/04 07:18:51;;;;;;;;;;;;;;;;;;5063902;28;19999;-73
2023/09/04 07:21:17;;;;;;;;;;;;;;;;;;5063033;28;19947;-73
2023/09/04 07:23:43;;;;;;;;;;;;;;;;;;5067063;28;19916;-73
2023/09/04 07:26:09;;;;;;;;;;;;;;;;;;5044523;28;19905;-72
2023/09/04 07:28:37;;;;;;;;;;;;;;;;;;5054721;28;20284;-72
2023/09/04 07:31:06;;;;;;;;;;;;;;;;;;5073184;28;20007;-73
2023/09/04 07:33:32;;;;;;;;;;;;;;;;;;5062110;28;19904;-73
2023/09/04 07:35:59;;;;;;;;;;;;;;;;;;5060902;28;20351;-73
2023/09/04 07:38:25;;;;;;;;;;;;;;;;;;5055794;28;19924;-72
2023/09/04 07:40:50;;;;;;;;;;;;;;;;;;5052076;28;19913;-72
2023/09/04 07:43:16;;;;;;;;;;;;;;;;;;5049017;28;19939;-73
2023/09/04 07:45:42;;;;;;;;;;;;;;;;;;5050385;28;20364;-74
2023/09/04 07:48:08;;;;;;;;;;;;;;;;;;5062159;28;19908;-73
2023/09/04 07:50:34;;;;;;;;;;;;;;;;;;5066746;28;19912;-73
2023/09/04 07:53:03;;;;;;;;;;;;;;;;;;5071701;28;20287;-73
2023/09/04 07:55:29;;;;;;;;;;;;;;;;;;5062707;28;19919;-72
2023/09/04 07:57:55;;;;;;;;;;;;;;;;;;5071434;28;20123;-72
2023/09/04 08:00:21;;;;;;;;;;;;;;;;;;5069796;28;19912;-72
2023/09/04 08:02:47;;;;;;;;;;;;;;;;;;5062708;28;19916;-72
2023/09/04 08:05:13;;;;;;;;;;;;;;;;;;5062720;28;19909;-72
2023/09/04 08:07:39;;;;;;;;;;;;;;;;;;5064329;28;19939;-72
2023/09/04 08:10:05;;;;;;;;;;;;;;;;;;5040060;28;20380;-73
2023/09/04 08:12:31;;;;;;;;;;;;;;;;;;5069056;28;19908;-72
2023/09/04 08:14:57;;;;;;;;;;;;;;;;;;5062069;28;19919;-73
2023/09/04 08:17:24;;;;;;;;;;;;;;;;;;5061080;28;19908;-72
2023/09/04 08:19:50;;;;;;;;;;;;;;;;;;5070760;28;19919;-73
2023/09/04 08:22:16;;;;;;;;;;;;;;;;;;5070911;28;19905;-73
2023/09/04 08:24:42;;;;;;;;;;;;;;;;;;5061233;28;20397;-73
2023/09/04 08:27:07;;;;;;;;;;;;;;;;;;5052805;28;20053;-72
2023/09/04 08:29:33;;;;;;;;;;;;;;;;;;5047826;28;19976;-72
2023/09/04 08:31:59;;;;;;;;;;;;;;;;;;5056480;28;19909;-72
2023/09/04 08:34:25;;;;;;;;;;;;;;;;;;5059738;28;20368;-73
2023/09/04 08:36:51;;;;;;;;;;;;;;;;;;5070305;28;19905;-72
2023/09/04 08:39:17;;;;;;;;;;;;;;;;;;5059002;28;19908;-73
2023/09/04 08:41:43;;;;;;;;;;;;;;;;;;5057549;28;19946;-73
2023/09/04 08:44:09;;;;;;;;;;;;;;;;;;5065728;28;19913;-72
2023/09/04 08:46:35;;;;;;;;;;;;;;;;;;5068217;28;19916;-71
2023/09/04 08:49:03;;;;;;;;;;;;;;;;;;5056672;28;20372;-72
2023/09/04 08:51:29;;;;;;;;;;;;;;;;;;5058054;28;19912;-72
2023/09/04 08:53:56;;;;;;;;;;;;;;;;;;5040785;28;19908;-72
2023/09/04 08:56:24;;;;;;;;;;;;;;;;;;5068218;28;19932;-74
2023/09/04 08:58:50;;;;;;;;;;;;;;;;;;5070977;28;19912;-74
2023/09/04 09:01:16;;;;;;;;;;;;;;;;;;5080713;28;19904;-74
2023/09/04 09:03:41;;;;;;;;;;;;;;;;;;5075842;28;19916;-75
2023/09/04 09:06:07;;;;;;;;;;;;;;;;;;5063238;28;19908;-72
2023/09/04 09:08:33;;;;;;;;;;;;;;;;;;5044061;28;19915;-73
2023/09/04 09:11:00;;;;;;;;;;;;;;;;;;5036860;28;19912;-73
2023/09/04 09:13:26;;;;;;;;;;;;;;;;;;5057207;28;20049;-73
2023/09/04 09:15:52;;;;;;;;;;;;;;;;;;5061469;28;19916;-74
2023/09/04 09:18:18;;;;;;;;;;;;;;;;;;5056200;28;19912;-72
2023/09/04 09:20:44;;;;;;;;;;;;;;;;;;5046017;22;1095937;-74
2023/09/04 09:23:10;;;;;;;;;;;;;;;;;;5030188;28;20365;-75
2023/09/04 09:25:36;;;;;;;;;;;;;;;;;;5033302;28;19916;-76
2023/09/04 09:28:02;;;;;;;;;;;;;;;;;;5038363;28;19905;-76
2023/09/04 09:30:27;;;;;;;;;;;;;;;;;;5041829;28;20520;-76
2023/09/04 09:32:54;;;;;;;;;;;;;;;;;;5031911;28;19912;-76
2023/09/04 09:35:20;;;;;;;;;;;;;;;;;;5032107;28;19905;-76
2023/09/04 09:37:46;;;;;;;;;;;;;;;;;;5008026;28;20296;-75
2023/09/04 09:40:12;;;;;;;;;;;;;;;;;;5030334;28;19913;-76
2023/09/04 09:42:39;;;;;;;;;;;;;;;;;;5031944;28;19952;-76
2023/09/04 09:45:05;;;;;;;;;;;;;;;;;;5014034;28;20042;-75
2023/09/04 09:47:31;;;;;;;;;;;;;;;;;;5031872;28;19943;-76
2023/09/04 09:49:56;;;;;;;;;;;;;;;;;;5014375;28;19963;-75
2023/09/04 09:52:22;;;;;;;;;;;;;;;;;;5031909;28;19952;-76
2023/09/04 09:54:48;;;;;;;;;;;;;;;;;;5008274;28;19964;-75
2023/09/04 09:57:14;;;;;;;;;;;;;;;;;;5026903;28;19915;-77
2023/09/04 09:59:40;;;;;;;;;;;;;;;;;;5031315;28;19905;-75
2023/09/04 10:02:06;;;;;;;;;;;;;;;;;;5031870;28;20296;-75
2023/09/04 10:04:32;;;;;;;;;;;;;;;;;;5017429;28;19916;-75
2023/09/04 10:06:58;;;;;;;;;;;;;;;;;;5017007;28;19905;-76
2023/09/04 10:09:24;;;;;;;;;;;;;;;;;;5035649;28;20059;-76
2023/09/04 10:11:51;;;;;;;;;;;;;;;;;;5037436;28;20391;-77
2023/09/04 10:14:17;;;;;;;;;;;;;;;;;;5035968;28;19966;-77
2023/09/04 10:16:42;;;;;;;;;;;;;;;;;;5035590;28;19913;-75
2023/09/04 10:19:09;;;;;;;;;;;;;;;;;;5035295;28;19959;-75
2023/09/04 10:21:35;;;;;;;;;;;;;;;;;;5035081;28;19917;-77
2023/09/04 10:24:02;;;;;;;;;;;;;;;;;;5033633;28;19940;-76
2023/09/04 10:26:28;;;;;;;;;;;;;;;;;;5014312;28;19917;-75
2023/09/04 10:28:54;;;;;;;;;;;;;;;;;;5032514;28;19974;-76
2023/09/04 10:31:20;;;;;;;;;;;;;;;;;;5035471;28;19964;-78
2023/09/04 10:33:46;;;;;;;;;;;;;;;;;;5013013;28;20265;-74
2023/09/04 10:36:12;;;;;;;;;;;;;;;;;;5043949;28;19912;-76
2023/09/04 10:38:38;;;;;;;;;;;;;;;;;;5032176;28;19909;-77
2023/09/04 10:41:04;;;;;;;;;;;;;;;;;;5028763;28;19928;-77
2023/09/04 10:43:29;;;;;;;;;;;;;;;;;;5032380;28;20301;-77
2023/09/04 10:45:55;;;;;;;;;;;;;;;;;;5043388;28;19924;-76
2023/09/04 10:48:21;;;;;;;;;;;;;;;;;;5036125;28;19916;-76
2023/09/04 10:50:47;;;;;;;;;;;;;;;;;;5032795;28;19909;-77
2023/09/04 10:53:13;;;;;;;;;;;;;;;;;;5033531;28;19905;-77
2023/09/04 10:55:39;;;;;;;;;;;;;;;;;;5032229;28;19904;-77
2023/09/04 10:58:05;;;;;;;;;;;;;;;;;;5037946;28;19909;-76
2023/09/04 11:00:32;;;;;;;;;;;;;;;;;;5021306;28;19963;-76
2023/09/04 11:02:59;;;;;;;;;;;;;;;;;;5038097;28;19916;-77
2023/09/04 11:05:24;;;;;;;;;;;;;;;;;;5042991;28;19912;-75
2023/09/04 11:07:50;;;;;;;;;;;;;;;;;;5030323;28;20434;-77
2023/09/04 11:10:17;;;;;;;;;;;;;;;;;;5043998;28;19927;-77
2023/09/04 11:12:43;;;;;;;;;;;;;;;;;;5038347;28;19912;-78
2023/09/04 11:15:08;;;;;;;;;;;;;;;;;;5010886;28;19996;-75
2023/09/04 11:17:34;;;;;;;;;;;;;;;;;;5027826;28;19909;-76
2023/09/04 11:20:00;;;;;;;;;;;;;;;;;;5049199;28;19970;-74
2023/09/04 11:22:26;;;;;;;;;;;;;;;;;;5026870;28;19913;-77
2023/09/04 11:24:55;;;;;;;;;;;;;;;;;;5045403;28;20395;-77
2023/09/04 11:27:21;;;;;;;;;;;;;;;;;;5043580;28;20006;-73
2023/09/04 11:29:47;;;;;;;;;;;;;;;;;;5035951;28;19948;-74
2023/09/04 11:32:13;;;;;;;;;;;;;;;;;;5019505;28;19912;-76
2023/09/04 11:34:38;;;;;;;;;;;;;;;;;;5030469;28;19905;-75
2023/09/04 11:37:04;;;;;;;;;;;;;;;;;;5031488;28;19952;-77
2023/09/04 11:39:30;;;;;;;;;;;;;;;;;;5041669;28;19909;-76
2023/09/04 11:41:56;;;;;;;;;;;;;;;;;;5016669;28;19912;-74
2023/09/04 11:44:22;;;;;;;;;;;;;;;;;;5031454;28;20422;-75
2023/09/04 11:46:48;;;;;;;;;;;;;;;;;;5039023;28;19904;-78
2023/09/04 11:49:14;;;;;;;;;;;;;;;;;;5037986;28;20086;-76
2023/09/04 11:51:40;;;;;;;;;;;;;;;;;;5039965;28;19905;-76
2023/09/04 11:54:06;;;;;;;;;;;;;;;;;;5020273;28;19959;-75
2023/09/04 11:56:32;;;;;;;;;;;;;;;;;;5048660;28;19911;-76
2023/09/04 11:58:58;;;;;;;;;;;;;;;;;;5038256;28;19909;-75
2023/09/04 12:01:24;;;;;;;;;;;;;;;;;;5045112;28;20375;-74
2023/09/04 12:03:52;;;;;;;;;;;;;;;;;;5035756;28;19999;-77
2023/09/04 12:06:18;;;;;;;;;;;;;;;;;;5026102;28;19916;-73
2023/09/04 12:08:44;;;;;;;;;;;;;;;;;;5028329;28;20005;-76
2023/09/04 12:11:10;;;;;;;;;;;;;;;;;;5040081;28;19912;-74
2023/09/04 12:13:36;;;;;;;;;;;;;;;;;;5034130;28;19909;-76
2023/09/04 12:16:02;;;;;;;;;;;;;;;;;;5031805;28;19978;-77
2023/09/04 12:18:29;;;;;;;;;;;;;;;;;;5044326;28;19904;-77
2023/09/04 12:20:55;;;;;;;;;;;;;;;;;;5052777;28;19917;-76
2023/09/04 12:23:20;;;;;;;;;;;;;;;;;;5035042;28;19908;-76
2023/09/04 12:25:46;;;;;;;;;;;;;;;;;;5052934;28;19949;-75
2023/09/04 12:28:12;;;;;;;;;;;;;;;;;;5034513;28;19912;-75
2023/09/04 12:30:40;;;;;;;;;;;;;;;;;;5052947;28;19923;-76
2023/09/04 12:33:06;;;;;;;;;;;;;;;;;;5052534;28;19905;-75
2023/09/04 12:35:32;;;;;;;;;;;;;;;;;;5024540;28;19996;-75
2023/09/04 12:37:58;;;;;;;;;;;;;;;;;;5018759;28;20312;-75
2023/09/04 12:40:23;;;;;;;;;;;;;;;;;;5013119;28;19905;-75
2023/09/04 12:42:49;;;;;;;;;;;;;;;;;;5012972;28;19912;-76
2023/09/04 12:45:15;;;;;;;;;;;;;;;;;;5012753;28;19948;-75
2023/09/04 12:47:41;;;;;;;;;;;;;;;;;;5002626;28;19913;-75
2023/09/04 12:50:07;;;;;;;;;;;;;;;;;;5031094;28;19916;-75
2023/09/04 12:52:36;;;;;;;;;;;;;;;;;;5029040;28;19909;-76
2023/09/04 12:55:03;;;;;;;;;;;;;;;;;;5038798;28;20396;-78
2023/09/04 12:57:29;;;;;;;;;;;;;;;;;;5042953;28;19971;-73
2023/09/04 12:59:55;;;;;;;;;;;;;;;;;;5034093;28;19915;-76
2023/09/04 13:02:21;;;;;;;;;;;;;;;;;;5034217;28;19904;-76
2023/09/04 13:04:47;;;;;;;;;;;;;;;;;;5035769;28;19913;-75
2023/09/04 13:07:13;;;;;;;;;;;;;;;;;;5012540;28;19960;-74
2023/09/04 13:09:39;;;;;;;;;;;;;;;;;;5012150;28;19910;-76
2023/09/04 13:12:05;;;;;;;;;;;;;;;;;;5023843;28;19959;-75
2023/09/04 13:14:31;;;;;;;;;;;;;;;;;;5014005;28;19906;-77
2023/09/04 13:16:57;;;;;;;;;;;;;;;;;;5012354;28;20002;-76
2023/09/04 13:19:22;;;;;;;;;;;;;;;;;;5012216;28;19996;-77
2023/09/04 13:21:48;;;;;;;;;;;;;;;;;;5012254;28;19935;-76
2023/09/04 13:24:14;;;;;;;;;;;;;;;;;;4994503;28;19917;-76
2023/09/04 13:26:40;;;;;;;;;;;;;;;;;;5011820;28;19905;-76
2023/09/04 13:29:06;;;;;;;;;;;;;;;;;;5012116;28;19911;-76
2023/09/04 13:31:32;;;;;;;;;;;;;;;;;;5012111;28;20052;-77
2023/09/04 13:33:58;;;;;;;;;;;;;;;;;;5012019;28;19913;-77
2023/09/04 13:36:24;;;;;;;;;;;;;;;;;;5012580;28;19905;-76
2023/09/04 13:38:50;;;;;;;;;;;;;;;;;;5011979;28;19911;-75
2023/09/04 13:41:15;;;;;;;;;;;;;;;;;;4993758;28;20284;-76
2023/09/04 13:43:42;;;;;;;;;;;;;;;;;;4999814;28;19962;-77
2023/09/04 13:46:08;;;;;;;;;;;;;;;;;;5016466;28;20369;-75
2023/09/04 13:48:34;;;;;;;;;;;;;;;;;;5021251;28;19916;-74
2023/09/04 13:51:01;;;;;;;;;;;;;;;;;;4994109;28;19905;-76
2023/09/04 13:53:27;;;;;;;;;;;;;;;;;;5011693;28;19971;-77
2023/09/04 13:55:53;;;;;;;;;;;;;;;;;;5040535;28;20342;-74
2023/09/04 13:58:19;;;;;;;;;;;;;;;;;;5051215;28;19904;-75
2023/09/04 14:00:45;;;;;;;;;;;;;;;;;;5031310;28;19908;-77
2023/09/04 14:03:11;;;;;;;;;;;;;;;;;;5010381;28;19913;-77
2023/09/04 14:05:37;;;;;;;;;;;;;;;;;;5031251;28;19905;-75
2023/09/04 14:08:03;;;;;;;;;;;;;;;;;;5011677;28;19905;-76
2023/09/04 14:10:28;;;;;;;;;;;;;;;;;;5022236;28;20440;-78
2023/09/04 14:12:54;;;;;;;;;;;;;;;;;;5025152;28;19917;-79
2023/09/04 14:15:20;;;;;;;;;;;;;;;;;;5031394;28;19905;-78
2023/09/04 14:17:46;;;;;;;;;;;;;;;;;;5030978;28;20393;-76
2023/09/04 14:20:12;;;;;;;;;;;;;;;;;;5031088;28;19905;-76
2023/09/04 14:22:38;;;;;;;;;;;;;;;;;;5031435;28;19916;-76
2023/09/04 14:25:04;;;;;;;;;;;;;;;;;;5031313;28;19938;-77
2023/09/04 14:27:30;;;;;;;;;;;;;;;;;;5031503;28;19905;-75
2023/09/04 14:29:57;;;;;;;;;;;;;;;;;;5013716;28;20391;-76
2023/09/04 14:32:23;;;;;;;;;;;;;;;;;;5031407;28;19912;-76
2023/09/04 14:34:49;;;;;;;;;;;;;;;;;;5031469;28;19916;-76
2023/09/04 14:37:14;;;;;;;;;;;;;;;;;;5031476;28;19936;-76
2023/09/04 14:39:40;;;;;;;;;;;;;;;;;;5031098;28;19915;-76
2023/09/04 14:42:06;;;;;;;;;;;;;;;;;;5031337;28;20000;-76
2023/09/04 14:44:32;;;;;;;;;;;;;;;;;;5031299;28;19909;-76
2023/09/04 14:46:58;;;;;;;;;;;;;;;;;;5031172;28;19996;-77
2023/09/04 14:49:25;;;;;;;;;;;;;;;;;;5031148;28;19920;-77
2023/09/04 14:51:51;;;;;;;;;;;;;;;;;;5032527;28;20388;-78
2023/09/04 14:54:18;;;;;;;;;;;;;;;;;;5034671;28;19967;-77
2023/09/04 14:56:44;;;;;;;;;;;;;;;;;;5016704;28;19905;-77
2023/09/04 14:59:10;;;;;;;;;;;;;;;;;;5016952;28;20435;-76
2023/09/04 15:01:36;;;;;;;;;;;;;;;;;;5034559;28;20046;-77
2023/09/04 15:04:02;;;;;;;;;;;;;;;;;;5034467;28;20003;-76
2023/09/04 15:06:28;;;;;;;;;;;;;;;;;;5034333;28;19912;-75
2023/09/04 15:08:53;;;;;;;;;;;;;;;;;;5034289;28;19982;-75
2023/09/04 15:11:19;;;;;;;;;;;;;;;;;;5033996;28;20315;-75
2023/09/04 15:13:45;;;;;;;;;;;;;;;;;;5033166;28;19966;-76
2023/09/04 15:16:11;;;;;;;;;;;;;;;;;;5029492;28;19905;-77
2023/09/04 15:18:38;;;;;;;;;;;;;;;;;;5032062;28;19916;-76
2023/09/04 15:21:07;;;;;;;;;;;;;;;;;;5027653;28;20077;-77
2023/09/04 15:23:33;;;;;;;;;;;;;;;;;;5071382;22;19995;-73
2023/09/04 15:25:59;;;;;;;;;;;;;;;;;;5056982;28;20386;-72
2023/09/04 15:28:25;;;;;;;;;;;;;;;;;;5073088;28;19908;-72
2023/09/04 15:30:51;;;;;;;;;;;;;;;;;;5074660;28;19911;-72
2023/09/04 15:33:17;;;;;;;;;;;;;;;;;;5062911;28;19905;-72
2023/09/04 15:35:47;;;;;;;;;;;;;;;;;;5054878;28;19909;-72
2023/09/04 15:38:13;;;;;;;;;;;;;;;;;;5037535;28;20315;-72
2023/09/04 15:40:39;;;;;;;;;;;;;;;;;;5053821;28;19916;-72
2023/09/04 15:43:05;;;;;;;;;;;;;;;;;;5048690;28;20384;-73
2023/09/04 15:45:31;;;;;;;;;;;;;;;;;;5038704;28;19920;-73
2023/09/04 15:47:56;;;;;;;;;;;;;;;;;;5029712;28;19916;-70
2023/09/04 15:50:26;;;;;;;;;;;;;;;;;;5029910;28;19912;-72
2023/09/04 15:52:52;;;;;;;;;;;;;;;;;;5029592;28;19909;-72
2023/09/04 15:55:18;;;;;;;;;;;;;;;;;;5029337;28;19924;-71
2023/09/04 15:57:43;;;;;;;;;;;;;;;;;;5029310;28;20369;-71
2023/09/04 16:00:09;;;;;;;;;;;;;;;;;;5029361;28;19921;-70
2023/09/04 16:02:35;;;;;;;;;;;;;;;;;;5030824;28;19916;-72
2023/09/04 16:05:02;;;;;;;;;;;;;;;;;;5029962;28;20281;-71
2023/09/04 16:07:27;;;;;;;;;;;;;;;;;;5030780;28;19909;-72
2023/09/04 16:09:53;;;;;;;;;;;;;;;;;;5030926;28;19905;-72
2023/09/04 16:12:19;;;;;;;;;;;;;;;;;;5030855;28;19905;-73
2023/09/04 16:14:45;;;;;;;;;;;;;;;;;;5030764;28;20304;-72
2023/09/04 16:17:12;;;;;;;;;;;;;;;;;;5031311;28;19905;-72
2023/09/04 16:19:39;;;;;;;;;;;;;;;;;;5033051;28;19960;-72
2023/09/04 16:22:05;;;;;;;;;;;;;;;;;;5032724;28;19988;-72
2023/09/04 16:24:32;;;;;;;;;;;;;;;;;;5014810;28;20019;-72
2023/09/04 16:26:58;;;;;;;;;;;;;;;;;;5033063;28;20273;-72
2023/09/04 16:29:24;;;;;;;;;;;;;;;;;;5032976;28;19955;-72
2023/09/04 16:31:49;;;;;;;;;;;;;;;;;;5032987;28;19952;-71
2023/09/04 16:34:15;;;;;;;;;;;;;;;;;;5033006;28;20317;-71
2023/09/04 16:36:41;;;;;;;;;;;;;;;;;;5014917;28;19915;-72